createdAt,value
2017-11-23T00:00:50.801Z,135
2017-11-23T00:01:50.855Z,135
2017-11-23T00:02:50.852Z,135
2017-11-23T00:03:50.800Z,135
2017-11-23T00:04:50.785Z,135
2017-11-23T00:05:50.763Z,135
2017-11-23T00:06:51.435Z,135
2017-11-23T00:07:50.839Z,135
2017-11-23T00:08:50.804Z,135
2017-11-23T00:09:50.894Z,135
2017-11-23T00:10:50.775Z,135
2017-11-23T00:11:51.384Z,135
2017-11-23T00:12:50.810Z,135
2017-11-23T00:13:50.875Z,135
2017-11-23T00:14:50.816Z,135
2017-11-23T00:15:50.793Z,135
2017-11-23T00:16:50.758Z,135
2017-11-23T00:17:50.777Z,135
2017-11-23T00:18:51.451Z,135
2017-11-23T00:19:50.862Z,135
2017-11-23T00:20:50.759Z,135
2017-11-23T00:21:50.797Z,135
2017-11-23T00:22:50.878Z,135
2017-11-23T00:23:50.847Z,135
2017-11-23T00:24:51.331Z,135
2017-11-23T00:25:50.787Z,135
2017-11-23T00:26:50.784Z,135
2017-11-23T00:27:50.800Z,135
2017-11-23T00:28:50.964Z,135
2017-11-23T00:29:50.789Z,135.5
2017-11-23T00:30:50.766Z,135.2
2017-11-23T00:31:50.804Z,135.1
2017-11-23T00:32:50.891Z,135
2017-11-23T00:33:51.781Z,135
2017-11-23T00:34:50.778Z,135
2017-11-23T00:35:50.808Z,135
2017-11-23T00:36:50.836Z,135
2017-11-23T00:37:50.771Z,135
2017-11-23T00:38:50.829Z,135
2017-11-23T00:39:50.860Z,135
2017-11-23T00:40:50.781Z,135
2017-11-23T00:41:50.745Z,135
2017-11-23T00:42:50.765Z,135
2017-11-23T00:43:50.987Z,135
2017-11-23T00:44:51.743Z,135
2017-11-23T00:45:50.769Z,135.3
2017-11-23T00:46:50.775Z,135.1
2017-11-23T00:47:50.788Z,135.1
2017-11-23T00:48:51.852Z,135
2017-11-23T00:49:50.803Z,135
2017-11-23T00:50:50.759Z,135
2017-11-23T00:51:50.795Z,135
2017-11-23T00:52:50.770Z,135
2017-11-23T00:53:50.862Z,135
2017-11-23T00:54:50.778Z,135
2017-11-23T00:55:50.761Z,135
2017-11-23T00:56:50.807Z,135
2017-11-23T00:57:50.710Z,135
2017-11-23T00:58:50.796Z,135
2017-11-23T00:59:51.092Z,135
2017-11-23T01:00:50.726Z,135
2017-11-23T01:01:50.828Z,135
2017-11-23T01:02:50.767Z,135
2017-11-23T01:03:50.803Z,135
2017-11-23T01:04:50.753Z,135
2017-11-23T01:05:50.831Z,135
2017-11-23T01:06:50.733Z,135
2017-11-23T01:07:50.752Z,135
2017-11-23T01:08:50.912Z,135
2017-11-23T01:09:50.742Z,135
2017-11-23T01:10:50.720Z,135
2017-11-23T01:11:50.835Z,135
2017-11-23T01:12:50.743Z,135
2017-11-23T01:13:50.783Z,135
2017-11-23T01:14:50.783Z,135
2017-11-23T01:15:50.710Z,135
2017-11-23T01:16:50.749Z,135
2017-11-23T01:17:50.790Z,135
2017-11-23T01:18:50.843Z,135
2017-11-23T01:19:50.731Z,135
2017-11-23T01:20:50.734Z,135.5
2017-11-23T01:21:50.834Z,135.3
2017-11-23T01:22:51.262Z,135.1
2017-11-23T01:23:50.774Z,135.3
2017-11-23T01:24:50.793Z,135.2
2017-11-23T01:25:50.748Z,135.1
2017-11-23T01:26:50.669Z,135
2017-11-23T01:27:50.713Z,135
2017-11-23T01:28:50.813Z,135
2017-11-23T01:29:50.731Z,135
2017-11-23T01:30:50.769Z,135
2017-11-23T01:31:50.692Z,135
2017-11-23T01:32:50.715Z,135
2017-11-23T01:33:50.846Z,135
2017-11-23T01:34:50.799Z,135
2017-11-23T01:35:50.704Z,135
2017-11-23T01:36:50.826Z,135
2017-11-23T01:37:50.699Z,135
2017-11-23T01:38:50.725Z,135
2017-11-23T01:39:50.843Z,135
2017-11-23T01:40:50.734Z,135
2017-11-23T01:41:50.693Z,135
2017-11-23T01:42:50.797Z,135
2017-11-23T01:43:50.722Z,135
2017-11-23T01:44:50.783Z,135
2017-11-23T01:45:50.728Z,135
2017-11-23T01:46:50.800Z,135
2017-11-23T01:47:50.720Z,135
2017-11-23T01:48:50.697Z,135
2017-11-23T01:49:50.838Z,135
2017-11-23T01:50:51.261Z,135
2017-11-23T01:51:50.746Z,135
2017-11-23T01:52:50.822Z,135
2017-11-23T01:53:50.737Z,135
2017-11-23T01:54:50.789Z,135
2017-11-23T01:55:50.814Z,135
2017-11-23T01:56:50.755Z,135.3
2017-11-23T01:57:50.725Z,135.2
2017-11-23T01:58:50.824Z,135.1
2017-11-23T01:59:50.852Z,135
2017-11-23T02:05:11.093Z,135
2017-11-23T02:05:50.718Z,136
2017-11-23T02:06:50.680Z,135.5
2017-11-23T02:07:50.756Z,135.2
2017-11-23T02:08:50.719Z,135.1
2017-11-23T02:09:50.778Z,135
2017-11-23T02:10:50.785Z,135
2017-11-23T02:11:50.732Z,135
2017-11-23T02:12:50.726Z,135
2017-11-23T02:13:50.779Z,135
2017-11-23T02:14:50.751Z,135
2017-11-23T02:15:50.676Z,135
2017-11-23T02:16:50.775Z,135
2017-11-23T02:17:50.721Z,135
2017-11-23T02:18:51.673Z,135
2017-11-23T02:19:50.837Z,135.3
2017-11-23T02:25:13.412Z,135.1
2017-11-23T02:25:50.702Z,136
2017-11-23T02:26:50.792Z,135.5
2017-11-23T02:27:51.684Z,135.2
2017-11-23T02:28:50.691Z,135.4
2017-11-23T02:29:50.780Z,135.2
2017-11-23T02:30:50.752Z,135.1
2017-11-23T02:31:51.286Z,135
2017-11-23T02:32:50.775Z,135
2017-11-23T02:33:50.678Z,135
2017-11-23T02:34:50.669Z,135
2017-11-23T02:35:50.870Z,135
2017-11-23T02:36:50.740Z,135
2017-11-23T02:37:50.702Z,135
2017-11-23T02:38:50.713Z,135
2017-11-23T02:39:50.789Z,135
2017-11-23T02:40:50.758Z,135
2017-11-23T02:41:50.674Z,135
2017-11-23T02:42:50.765Z,135
2017-11-23T02:43:50.690Z,135
2017-11-23T02:44:50.625Z,135.4
2017-11-23T02:45:50.856Z,135.2
2017-11-23T02:46:51.666Z,135.1
2017-11-23T02:47:50.727Z,135
2017-11-23T02:48:50.711Z,135
2017-11-23T02:49:50.686Z,135
2017-11-23T02:50:50.921Z,135
2017-11-23T02:51:50.775Z,135
2017-11-23T02:52:50.698Z,135
2017-11-23T02:53:50.725Z,135
2017-11-23T02:54:50.705Z,135
2017-11-23T02:55:50.725Z,135
2017-11-23T02:56:50.784Z,135
2017-11-23T02:57:50.639Z,135
2017-11-23T02:58:50.663Z,135
2017-11-23T02:59:50.785Z,135
2017-11-23T03:00:50.741Z,135
2017-11-23T03:01:50.682Z,135
2017-11-23T03:02:50.748Z,135
2017-11-23T03:03:50.684Z,135
2017-11-23T03:04:50.667Z,135
2017-11-23T03:05:51.432Z,135
2017-11-23T03:06:50.698Z,135
2017-11-23T03:07:50.701Z,135
2017-11-23T03:08:50.754Z,135
2017-11-23T03:09:50.666Z,135
2017-11-23T03:10:50.766Z,135
2017-11-23T03:11:50.733Z,135
2017-11-23T03:12:51.244Z,135
2017-11-23T03:13:50.628Z,135.3
2017-11-23T03:14:51.315Z,135.1
2017-11-23T03:15:50.769Z,135.1
2017-11-23T03:16:50.667Z,135
2017-11-23T03:17:50.795Z,135
2017-11-23T03:18:50.710Z,135
2017-11-23T03:20:25.267Z,135
2017-11-23T03:20:50.863Z,140.1
2017-11-23T03:21:50.626Z,137.4
2017-11-23T03:22:50.685Z,136.1
2017-11-23T03:23:52.550Z,146.7
2017-11-23T03:24:50.759Z,152.5
2017-11-23T03:25:50.745Z,155.2
2017-11-23T03:26:50.644Z,156.4
2017-11-23T03:27:50.725Z,157
2017-11-23T03:28:50.628Z,157.3
2017-11-23T03:29:50.650Z,157.4
2017-11-23T03:30:50.794Z,159.3
2017-11-23T03:31:50.816Z,270
2017-11-23T03:32:50.784Z,307.8
2017-11-23T03:33:50.655Z,312.5
2017-11-23T03:34:50.737Z,313.9
2017-11-23T03:35:50.764Z,314.5
2017-11-23T03:36:50.656Z,314.8
2017-11-23T03:37:50.746Z,314.9
2017-11-23T03:38:50.649Z,315
2017-11-23T03:39:50.656Z,315
2017-11-23T03:40:50.835Z,315
2017-11-23T03:41:50.650Z,315
2017-11-23T03:42:50.650Z,315
2017-11-23T03:43:50.641Z,315
2017-11-23T03:44:50.764Z,304.5
2017-11-23T03:45:50.743Z,285.6
2017-11-23T03:46:50.632Z,259.9
2017-11-23T03:47:50.648Z,240.2
2017-11-23T03:48:50.678Z,231.7
2017-11-23T03:49:50.725Z,228
2017-11-23T03:50:50.749Z,226.4
2017-11-23T03:51:50.650Z,245.3
2017-11-23T03:52:50.728Z,258.9
2017-11-23T03:53:50.661Z,271.2
2017-11-23T03:54:50.649Z,341.4
2017-11-23T03:55:50.715Z,24
2017-11-23T03:56:50.733Z,37.1
2017-11-23T03:57:50.758Z,52.9
2017-11-23T03:58:50.684Z,6.1
2017-11-23T03:59:50.692Z,343.9
2017-11-23T04:00:50.730Z,341.6
2017-11-23T04:01:50.717Z,289.7
2017-11-23T04:02:50.725Z,229.8
2017-11-23T04:03:50.662Z,212.6
2017-11-23T04:04:50.715Z,219.4
2017-11-23T04:05:50.668Z,222.6
2017-11-23T04:06:50.783Z,216.5
2017-11-23T04:07:50.644Z,217.6
2017-11-23T04:08:50.635Z,221.6
2017-11-23T04:09:50.712Z,209.5
2017-11-23T04:10:50.636Z,181.4
2017-11-23T04:11:50.734Z,191.8
2017-11-23T04:12:51.385Z,236.1
2017-11-23T04:13:50.626Z,228.8
2017-11-23T04:14:50.707Z,226.6
2017-11-23T04:15:51.290Z,225.7
2017-11-23T04:16:50.684Z,225.3
2017-11-23T04:17:50.667Z,225.1
2017-11-23T04:18:50.678Z,217
2017-11-23T04:19:50.826Z,194.8
2017-11-23T04:20:50.620Z,151.9
2017-11-23T04:21:50.719Z,137.3
2017-11-23T04:22:53.689Z,136
2017-11-23T04:23:50.734Z,135.7
2017-11-23T04:24:50.614Z,135.3
2017-11-23T04:25:50.657Z,135.2
2017-11-23T04:26:50.756Z,135.1
2017-11-23T04:27:50.708Z,135
2017-11-23T04:28:50.654Z,135
2017-11-23T04:29:50.621Z,135
2017-11-23T04:30:50.629Z,135
2017-11-23T04:31:50.792Z,135
2017-11-23T04:32:50.658Z,135
2017-11-23T04:33:50.648Z,135
2017-11-23T04:34:50.740Z,135
2017-11-23T04:35:50.630Z,135
2017-11-23T04:36:50.665Z,135
2017-11-23T04:37:50.656Z,135
2017-11-23T04:38:50.765Z,135
2017-11-23T04:39:50.659Z,135
2017-11-23T04:40:50.647Z,135.5
2017-11-23T04:41:50.640Z,135.7
2017-11-23T04:42:50.727Z,135.3
2017-11-23T04:43:50.629Z,135.2
2017-11-23T04:44:50.651Z,135.1
2017-11-23T04:45:51.124Z,135
2017-11-23T04:46:50.768Z,135
2017-11-23T04:47:50.642Z,135
2017-11-23T04:48:50.630Z,135
2017-11-23T04:49:50.600Z,135.4
2017-11-23T04:50:50.757Z,135.2
2017-11-23T04:51:50.723Z,135.1
2017-11-23T04:52:50.643Z,135
2017-11-23T04:53:50.637Z,135
2017-11-23T04:54:50.739Z,135
2017-11-23T04:55:51.320Z,135
2017-11-23T04:56:50.708Z,135
2017-11-23T04:59:56.813Z,135
2017-11-23T05:00:53.895Z,135.4
2017-11-23T05:01:53.914Z,135.1
2017-11-23T05:02:53.946Z,135.1
2017-11-23T05:03:53.863Z,135
2017-11-23T05:04:53.833Z,135
2017-11-23T05:05:53.950Z,135
2017-11-23T05:06:53.902Z,135
2017-11-23T05:07:53.833Z,135
2017-11-23T05:08:53.949Z,135
2017-11-23T05:09:53.845Z,135
2017-11-23T05:10:53.901Z,135
2017-11-23T05:11:54.002Z,135
2017-11-23T05:12:53.848Z,135
2017-11-23T05:13:53.866Z,135
2017-11-23T05:14:53.891Z,135
2017-11-23T05:15:53.843Z,135
2017-11-23T05:16:54.010Z,135
2017-11-23T05:17:53.859Z,135
2017-11-23T05:18:53.852Z,135
2017-11-23T05:19:53.935Z,135
2017-11-23T05:20:53.867Z,135
2017-11-23T05:21:54.075Z,135
2017-11-23T05:23:28.621Z,135
2017-11-23T05:23:53.898Z,140.8
2017-11-23T05:24:53.844Z,137.7
2017-11-23T05:25:53.893Z,136.3
2017-11-23T05:26:54.039Z,135.6
2017-11-23T05:27:53.845Z,135.3
2017-11-23T05:28:53.827Z,135.1
2017-11-23T05:29:53.832Z,135.1
2017-11-23T05:30:53.954Z,135
2017-11-23T05:31:53.915Z,135
2017-11-23T05:32:53.824Z,135
2017-11-23T05:33:53.945Z,135
2017-11-23T05:34:53.839Z,135
2017-11-23T05:35:53.925Z,135
2017-11-23T05:36:53.916Z,135
2017-11-23T05:37:53.854Z,135
2017-11-23T05:38:53.823Z,135
2017-11-23T05:39:53.823Z,135
2017-11-23T05:40:53.871Z,135
2017-11-23T05:41:53.958Z,135
2017-11-23T05:42:53.868Z,135.4
2017-11-23T05:43:54.370Z,135.2
2017-11-23T05:44:53.847Z,135.1
2017-11-23T05:45:53.868Z,135
2017-11-23T05:46:53.953Z,135
2017-11-23T05:47:53.898Z,135.4
2017-11-23T05:48:53.873Z,135.2
2017-11-23T05:49:53.871Z,135.1
2017-11-23T05:50:53.827Z,135
2017-11-23T05:51:53.954Z,135
2017-11-23T05:52:53.912Z,135
2017-11-23T05:53:53.818Z,135
2017-11-23T05:54:53.847Z,135.3
2017-11-23T05:55:53.916Z,135.1
2017-11-23T05:56:53.847Z,135.1
2017-11-23T05:57:53.886Z,135
2017-11-23T05:58:53.846Z,135
2017-11-23T05:59:53.879Z,135
2017-11-23T06:00:53.838Z,135
2017-11-23T06:01:53.831Z,135
2017-11-23T06:02:53.975Z,135
2017-11-23T06:03:53.876Z,135
2017-11-23T06:04:53.914Z,135
2017-11-23T06:05:53.916Z,135
2017-11-23T06:06:53.829Z,135
2017-11-23T06:07:53.884Z,135
2017-11-23T06:08:53.786Z,135
2017-11-23T06:09:53.811Z,135
2017-11-23T06:10:53.834Z,135
2017-11-23T06:11:53.844Z,135
2017-11-23T06:12:53.990Z,135
2017-11-23T06:13:53.822Z,135
2017-11-23T06:14:53.815Z,135
2017-11-23T06:15:53.922Z,135
2017-11-23T06:16:53.873Z,135.5
2017-11-23T06:17:53.924Z,135.5
2017-11-23T06:18:53.796Z,135.3
2017-11-23T06:19:53.864Z,135.1
2017-11-23T06:20:53.806Z,135.1
2017-11-23T06:21:53.793Z,135
2017-11-23T06:22:53.885Z,135
2017-11-23T06:23:53.775Z,135
2017-11-23T06:24:53.922Z,135
2017-11-23T06:25:53.834Z,135.3
2017-11-23T06:26:53.844Z,135.1
2017-11-23T06:27:53.910Z,135.1
2017-11-23T06:28:53.845Z,135
2017-11-23T06:29:53.802Z,135
2017-11-23T06:30:53.760Z,135
2017-11-23T06:31:53.805Z,135
2017-11-23T06:32:53.829Z,135
2017-11-23T06:33:53.810Z,135
2017-11-23T06:34:53.931Z,135
2017-11-23T06:35:53.799Z,135
2017-11-23T06:36:53.771Z,135
2017-11-23T06:37:53.906Z,135
2017-11-23T06:38:53.852Z,135
2017-11-23T06:39:53.827Z,135
2017-11-23T06:40:53.805Z,135
2017-11-23T06:41:53.904Z,135
2017-11-23T06:42:53.891Z,135
2017-11-23T06:43:53.763Z,135
2017-11-23T06:44:53.815Z,135
2017-11-23T06:45:53.861Z,135.3
2017-11-23T06:46:53.796Z,135.1
2017-11-23T06:47:53.871Z,135.1
2017-11-23T06:48:53.915Z,135
2017-11-23T06:49:53.784Z,135
2017-11-23T06:50:53.778Z,135
2017-11-23T06:51:53.903Z,135
2017-11-23T06:52:53.852Z,135
2017-11-23T06:53:53.832Z,135
2017-11-23T06:54:53.812Z,135
2017-11-23T06:55:53.838Z,135
2017-11-23T06:56:53.833Z,135
2017-11-23T06:57:53.916Z,135
2017-11-23T06:58:53.814Z,135
2017-11-23T06:59:53.848Z,135.3
2017-11-23T07:00:53.770Z,135.1
2017-11-23T07:01:53.797Z,135.1
2017-11-23T07:02:53.945Z,135
2017-11-23T07:03:53.810Z,135
2017-11-23T07:04:53.814Z,135
2017-11-23T07:05:53.889Z,135
2017-11-23T07:06:53.804Z,135
2017-11-23T07:07:53.820Z,135
2017-11-23T07:08:53.750Z,135
2017-11-23T07:09:53.841Z,135
2017-11-23T07:10:53.836Z,135
2017-11-23T07:11:53.825Z,135
2017-11-23T07:12:53.864Z,135
2017-11-23T07:13:53.771Z,135
2017-11-23T07:14:53.843Z,135
2017-11-23T07:15:53.813Z,135
2017-11-23T07:16:53.862Z,135
2017-11-23T07:17:54.524Z,135
2017-11-23T07:18:53.812Z,135
2017-11-23T07:19:53.801Z,135.5
2017-11-23T07:20:53.771Z,135.2
2017-11-23T07:21:53.777Z,135.1
2017-11-23T07:22:53.959Z,135.1
2017-11-23T07:23:53.818Z,135
2017-11-23T07:24:53.822Z,135
2017-11-23T07:25:53.970Z,135
2017-11-23T07:26:53.777Z,135
2017-11-23T07:27:53.957Z,135
2017-11-23T07:28:53.820Z,135
2017-11-23T07:29:53.804Z,135
2017-11-23T07:30:53.810Z,135
2017-11-23T07:31:53.823Z,135.4
2017-11-23T07:32:53.920Z,135.2
2017-11-23T07:33:53.801Z,135.1
2017-11-23T07:34:53.816Z,135
2017-11-23T07:35:53.797Z,135
2017-11-23T07:36:53.765Z,135
2017-11-23T07:37:53.877Z,135
2017-11-23T07:38:53.848Z,135
2017-11-23T07:39:53.761Z,135
2017-11-23T07:41:13.592Z,135
2017-11-23T07:41:53.786Z,129.6
2017-11-23T07:42:53.840Z,120.4
2017-11-23T07:43:53.834Z,124.5
2017-11-23T07:44:53.764Z,130.1
2017-11-23T07:45:53.808Z,132.7
2017-11-23T07:46:53.790Z,133.9
2017-11-23T07:47:53.889Z,134.5
2017-11-23T07:48:53.814Z,134.8
2017-11-23T07:49:53.762Z,134.9
2017-11-23T07:50:53.795Z,134.9
2017-11-23T07:51:53.793Z,135
2017-11-23T07:52:53.892Z,135
2017-11-23T07:53:53.788Z,135
2017-11-23T07:55:28.446Z,135
2017-11-23T07:55:53.807Z,140.8
2017-11-23T07:56:53.756Z,137.7
2017-11-23T07:57:53.818Z,136.2
2017-11-23T07:58:53.874Z,135.6
2017-11-23T07:59:53.750Z,135.3
2017-11-23T08:00:53.758Z,135.1
2017-11-23T08:01:53.786Z,135.1
2017-11-23T08:02:53.795Z,135.3
2017-11-23T08:03:53.812Z,135.2
2017-11-23T08:04:53.762Z,135.1
2017-11-23T08:05:53.799Z,135
2017-11-23T08:06:53.789Z,135
2017-11-23T08:07:53.774Z,135
2017-11-23T08:08:53.810Z,135
2017-11-23T08:09:53.762Z,135
2017-11-23T08:10:54.400Z,135
2017-11-23T08:11:53.826Z,135.3
2017-11-23T08:12:53.770Z,135.1
2017-11-23T08:13:53.896Z,135.1
2017-11-23T08:14:53.846Z,135
2017-11-23T08:15:53.762Z,135
2017-11-23T08:16:53.752Z,135
2017-11-23T08:17:53.767Z,135
2017-11-23T08:18:54.033Z,135
2017-11-23T08:19:53.782Z,135
2017-11-23T08:20:53.758Z,135
2017-11-23T08:21:53.853Z,135
2017-11-23T08:22:53.754Z,135
2017-11-23T08:23:53.862Z,135
2017-11-23T08:24:53.764Z,135
2017-11-23T08:25:53.755Z,135.4
2017-11-23T08:26:53.790Z,135.2
2017-11-23T08:27:53.757Z,135.1
2017-11-23T08:28:53.887Z,135
2017-11-23T08:29:53.769Z,135
2017-11-23T08:30:53.787Z,135
2017-11-23T08:31:53.785Z,135
2017-11-23T08:32:53.756Z,135
2017-11-23T08:33:53.829Z,135
2017-11-23T08:34:53.800Z,135
2017-11-23T08:35:53.897Z,135
2017-11-23T08:36:53.757Z,135
2017-11-23T08:37:53.775Z,135
2017-11-23T08:38:53.849Z,135
2017-11-23T08:39:53.864Z,135
2017-11-23T08:40:53.749Z,135
2017-11-23T08:41:53.851Z,135
2017-11-23T08:42:54.335Z,135
2017-11-23T08:43:53.874Z,135
2017-11-23T08:44:53.738Z,135
2017-11-23T08:45:53.833Z,135
2017-11-23T08:46:53.799Z,135
2017-11-23T08:47:53.825Z,135
2017-11-23T08:48:53.863Z,135
2017-11-23T08:49:53.765Z,135
2017-11-23T08:50:53.765Z,135
2017-11-23T08:51:53.805Z,135
2017-11-23T08:52:53.737Z,135
2017-11-23T08:53:53.762Z,135
2017-11-23T08:54:53.777Z,135
2017-11-23T08:55:53.794Z,135
2017-11-23T08:56:53.798Z,135
2017-11-23T08:57:53.740Z,135
2017-11-23T08:58:53.828Z,135
2017-11-23T08:59:54.456Z,135
2017-11-23T09:00:53.740Z,135
2017-11-23T09:01:53.766Z,135
2017-11-23T09:02:53.765Z,135
2017-11-23T09:03:53.847Z,135
2017-11-23T09:04:53.769Z,135
2017-11-23T09:05:53.790Z,135
2017-11-23T09:06:53.850Z,135
2017-11-23T09:07:53.758Z,135
2017-11-23T09:08:53.905Z,135
2017-11-23T09:09:53.738Z,135
2017-11-23T09:10:53.749Z,135
2017-11-23T09:11:53.750Z,135
2017-11-23T09:12:53.828Z,135
2017-11-23T09:13:53.830Z,135
2017-11-23T09:14:53.739Z,135
2017-11-23T09:15:53.773Z,135
2017-11-23T09:16:53.869Z,135
2017-11-23T09:17:53.743Z,135
2017-11-23T09:18:54.524Z,135
2017-11-23T09:19:53.783Z,135.3
2017-11-23T09:20:53.740Z,135.2
2017-11-23T09:21:53.722Z,135.1
2017-11-23T09:22:53.808Z,135
2017-11-23T09:23:53.826Z,135
2017-11-23T09:24:53.853Z,135.5
2017-11-23T09:25:53.776Z,135.2
2017-11-23T09:26:53.863Z,135.1
2017-11-23T09:27:53.748Z,135
2017-11-23T09:28:53.861Z,135
2017-11-23T09:29:53.814Z,135
2017-11-23T09:30:53.795Z,135
2017-11-23T09:31:53.714Z,135
2017-11-23T09:32:53.785Z,135
2017-11-23T09:33:53.878Z,135.4
2017-11-23T09:34:53.764Z,135.2
2017-11-23T09:35:53.762Z,135.1
2017-11-23T09:36:53.874Z,135
2017-11-23T09:37:53.836Z,135
2017-11-23T09:38:53.840Z,135
2017-11-23T09:39:53.807Z,135
2017-11-23T09:40:53.713Z,135
2017-11-23T09:41:53.828Z,135
2017-11-23T09:42:53.772Z,135
2017-11-23T09:43:53.844Z,135
2017-11-23T09:44:53.740Z,135
2017-11-23T09:45:53.849Z,135
2017-11-23T09:46:53.794Z,135
2017-11-23T09:47:53.811Z,135
2017-11-23T09:48:53.773Z,135
2017-11-23T09:49:53.711Z,135
2017-11-23T09:50:53.872Z,135
2017-11-23T09:51:53.707Z,135
2017-11-23T09:52:53.750Z,135
2017-11-23T09:53:53.833Z,135
2017-11-23T09:54:53.816Z,135
2017-11-23T09:55:53.723Z,135
2017-11-23T09:56:53.749Z,135
2017-11-23T09:57:53.816Z,135
2017-11-23T09:58:53.817Z,135
2017-11-23T09:59:53.779Z,135
2017-11-23T10:00:53.761Z,135
2017-11-23T10:02:03.718Z,135
2017-11-23T10:02:53.838Z,136.5
2017-11-23T10:03:53.846Z,135.7
2017-11-23T10:04:53.746Z,135.3
2017-11-23T10:05:53.757Z,135.1
2017-11-23T10:06:53.836Z,135.1
2017-11-23T10:07:53.765Z,135
2017-11-23T10:08:53.834Z,135
2017-11-23T10:09:53.759Z,135
2017-11-23T10:10:53.751Z,135
2017-11-23T10:11:53.732Z,135
2017-11-23T10:12:53.738Z,135
2017-11-23T10:13:53.829Z,135
2017-11-23T10:14:53.737Z,135
2017-11-23T10:15:53.775Z,135
2017-11-23T10:16:54.331Z,135
2017-11-23T10:17:53.836Z,135
2017-11-23T10:18:53.786Z,135
2017-11-23T10:19:53.771Z,135
2017-11-23T10:20:53.818Z,135
2017-11-23T10:21:53.714Z,135.4
2017-11-23T10:22:53.813Z,135.2
2017-11-23T10:23:53.803Z,135.1
2017-11-23T10:24:53.739Z,135
2017-11-23T10:25:53.761Z,135
2017-11-23T10:26:53.711Z,135
2017-11-23T10:27:53.831Z,135
2017-11-23T10:28:53.792Z,135
2017-11-23T10:29:53.730Z,135
2017-11-23T10:30:53.778Z,135
2017-11-23T10:31:53.813Z,135
2017-11-23T10:32:53.723Z,135
2017-11-23T10:33:53.805Z,135
2017-11-23T10:34:53.777Z,135
2017-11-23T10:35:53.731Z,135
2017-11-23T10:36:53.756Z,135
2017-11-23T10:37:54.730Z,135
2017-11-23T10:38:53.815Z,135
2017-11-23T10:39:53.763Z,135
2017-11-23T10:40:53.737Z,135
2017-11-23T10:41:53.753Z,135
2017-11-23T10:42:53.742Z,135
2017-11-23T10:43:53.795Z,135
2017-11-23T10:44:53.726Z,135
2017-11-23T10:45:53.779Z,135
2017-11-23T10:46:53.755Z,135
2017-11-23T10:47:53.744Z,135
2017-11-23T10:48:53.886Z,135
2017-11-23T10:49:53.764Z,135
2017-11-23T10:50:53.752Z,135
2017-11-23T10:51:53.778Z,135
2017-11-23T10:52:53.826Z,135
2017-11-23T10:53:53.806Z,135
2017-11-23T10:54:53.809Z,135
2017-11-23T10:55:54.379Z,135
2017-11-23T10:56:53.743Z,135
2017-11-23T10:57:53.827Z,135
2017-11-23T10:58:53.778Z,135
2017-11-23T10:59:53.757Z,135
2017-11-23T11:00:53.810Z,135
2017-11-23T11:01:54.424Z,135
2017-11-23T11:07:16.413Z,135
2017-11-23T11:07:53.685Z,136.1
2017-11-23T11:08:53.715Z,135.5
2017-11-23T11:09:53.784Z,135.2
2017-11-23T11:10:53.814Z,135.1
2017-11-23T11:11:53.679Z,135.1
2017-11-23T11:12:53.760Z,135
2017-11-23T11:13:53.740Z,135
2017-11-23T11:14:53.896Z,135
2017-11-23T11:15:53.746Z,135
2017-11-23T11:16:53.749Z,135
2017-11-23T11:17:53.726Z,135
2017-11-23T11:18:53.718Z,135
2017-11-23T11:20:28.441Z,135
2017-11-23T11:20:53.737Z,140.2
2017-11-23T11:21:53.735Z,137.4
2017-11-23T11:22:53.706Z,136.1
2017-11-23T11:23:53.756Z,135.5
2017-11-23T11:24:53.789Z,135.2
2017-11-23T11:25:53.699Z,135.1
2017-11-23T11:26:53.756Z,135.1
2017-11-23T11:27:53.740Z,135
2017-11-23T11:28:53.745Z,135
2017-11-23T11:29:53.785Z,135
2017-11-23T11:30:53.764Z,135
2017-11-23T11:31:53.769Z,135
2017-11-23T11:32:53.765Z,135
2017-11-23T11:33:53.738Z,135
2017-11-23T11:34:53.791Z,135
2017-11-23T11:35:53.764Z,135
2017-11-23T11:36:53.771Z,135
2017-11-23T11:37:53.699Z,135
2017-11-23T11:38:53.740Z,135
2017-11-23T11:39:53.852Z,135
2017-11-23T11:40:53.777Z,135
2017-11-23T11:41:53.714Z,135
2017-11-23T11:42:54.054Z,135
2017-11-23T11:43:54.247Z,135
2017-11-23T11:44:53.842Z,135
2017-11-23T11:45:53.713Z,135
2017-11-23T11:46:53.736Z,135
2017-11-23T11:47:53.742Z,135
2017-11-23T11:48:53.712Z,135
2017-11-23T11:49:53.748Z,135
2017-11-23T11:50:53.782Z,135
2017-11-23T11:51:53.756Z,135
2017-11-23T11:52:53.732Z,135
2017-11-23T11:53:53.690Z,135
2017-11-23T11:54:53.759Z,135
2017-11-23T11:55:54.392Z,135
2017-11-23T11:56:53.773Z,135.3
2017-11-23T11:57:53.734Z,135.1
2017-11-23T11:58:53.716Z,135.1
2017-11-23T11:59:53.767Z,135
2017-11-23T12:00:53.718Z,135
2017-11-23T12:01:53.716Z,135
2017-11-23T12:02:53.726Z,135
2017-11-23T12:03:53.765Z,145.5
2017-11-23T12:04:53.876Z,152.1
2017-11-23T12:05:53.736Z,154.9
2017-11-23T12:06:53.647Z,144.3
2017-11-23T12:07:53.743Z,139.3
2017-11-23T12:08:53.722Z,137
2017-11-23T12:09:53.864Z,135.9
2017-11-23T12:10:53.716Z,135.4
2017-11-23T12:11:53.773Z,135.2
2017-11-23T12:12:53.765Z,135.1
2017-11-23T12:13:54.171Z,135
2017-11-23T12:14:53.824Z,135
2017-11-23T12:15:54.275Z,135
2017-11-23T12:16:53.806Z,135
2017-11-23T12:17:53.718Z,131
2017-11-23T12:18:53.823Z,121.2
2017-11-23T12:19:53.783Z,128.8
2017-11-23T12:20:53.712Z,134.8
2017-11-23T12:21:53.698Z,197.1
2017-11-23T12:22:53.720Z,218.9
2017-11-23T12:23:53.799Z,222.6
2017-11-23T12:24:53.729Z,224
2017-11-23T12:25:53.707Z,224.5
2017-11-23T12:26:53.697Z,224.8
2017-11-23T12:27:53.699Z,224.9
2017-11-23T12:28:53.695Z,225
2017-11-23T12:29:53.772Z,268.1
2017-11-23T12:30:53.778Z,34.1
2017-11-23T12:31:53.764Z,29.9
2017-11-23T12:32:53.736Z,331
2017-11-23T12:33:53.737Z,288.7
2017-11-23T12:36:17.176Z,305.3
2017-11-23T12:37:17.232Z,248.5
2017-11-23T12:38:17.206Z,233.2
2017-11-23T12:39:17.180Z,229.6
2017-11-23T12:40:17.196Z,270.5
2017-11-23T12:41:17.174Z,220.7
2017-11-23T12:42:17.126Z,219.5
2017-11-23T12:43:17.258Z,222.7
2017-11-23T12:44:18.121Z,224
2017-11-23T12:45:17.333Z,224.5
2017-11-23T12:46:18.643Z,224.8
2017-11-23T12:47:17.266Z,224.9
2017-11-23T12:48:17.163Z,225
2017-11-23T12:49:17.202Z,235.5
2017-11-23T12:50:17.263Z,279.7
2017-11-23T12:51:17.226Z,256.8
2017-11-23T12:52:17.872Z,226.9
2017-11-23T12:53:17.163Z,211.5
2017-11-23T12:54:17.140Z,205.3
2017-11-23T12:55:17.235Z,235.9
2017-11-23T12:56:17.766Z,255.9
2017-11-23T12:57:17.147Z,263.9
2017-11-23T12:58:17.178Z,232.5
2017-11-23T12:59:17.150Z,200.5
2017-11-23T13:00:17.195Z,188.8
2017-11-23T13:01:17.194Z,183.9
2017-11-23T13:02:17.141Z,181.8
2017-11-23T13:03:17.234Z,190.7
2017-11-23T13:04:17.211Z,272.6
2017-11-23T13:05:17.218Z,337.6
2017-11-23T13:06:17.198Z,263
2017-11-23T13:07:18.161Z,238.7
2017-11-23T13:08:17.235Z,258.3
2017-11-23T13:09:17.114Z,238
2017-11-23T13:10:17.234Z,230.5
2017-11-23T13:11:17.177Z,227.5
2017-11-23T13:12:17.218Z,225.6
2017-11-23T13:13:17.180Z,225.3
2017-11-23T13:14:17.272Z,225.1
2017-11-23T13:15:17.267Z,225.1
2017-11-23T13:16:17.240Z,225
2017-11-23T13:17:17.188Z,227.6
2017-11-23T13:18:17.157Z,238.3
2017-11-23T13:19:17.161Z,243.2
2017-11-23T13:20:17.187Z,245.5
2017-11-23T13:21:17.142Z,246.6
2017-11-23T13:22:17.124Z,247.1
2017-11-23T13:23:17.263Z,247.3
2017-11-23T13:24:17.215Z,247.4
2017-11-23T13:25:17.232Z,247.5
2017-11-23T13:26:17.212Z,247.5
2017-11-23T13:27:17.234Z,247.5
2017-11-23T13:28:17.161Z,247.5
2017-11-23T13:29:17.193Z,247.5
2017-11-23T13:30:17.205Z,247.5
2017-11-23T13:31:17.385Z,247.5
2017-11-23T13:32:17.171Z,247.5
2017-11-23T13:33:17.132Z,236.1
2017-11-23T13:34:17.173Z,228
2017-11-23T13:35:17.232Z,226.4
2017-11-23T13:36:17.179Z,225.6
2017-11-23T13:37:17.255Z,225.3
2017-11-23T13:38:17.270Z,237.9
2017-11-23T13:39:17.233Z,307.5
2017-11-23T13:40:17.220Z,320.4
2017-11-23T13:41:17.153Z,268.1
2017-11-23T13:42:17.169Z,237.8
2017-11-23T13:43:17.163Z,229.3